Time;durP1;ratioP1;P1;durP2;ratioP2;P2;SDS_P1;SDS_P2;PMS_P1;PMS_P2;Temp;Humidity;BMP_temperature;BMP_pressure;BME280_temperature;BME280_humidity;BME280_pressure;Samples;Min_cycle;Max_cycle;Signal;HPM_P1;HPM_P2
2023/10/27 00:00:53;;;;;;;1.02;0.35;;;9.90;99.90;;;;;;5024757;28;20080;-74
2023/10/27 00:03:18;;;;;;;2.42;0.50;;;9.90;99.90;;;;;;5010462;28;20025;-74
2023/10/27 00:05:44;;;;;;;3.90;0.30;;;9.90;99.90;;;;;;5021881;28;20038;-74
2023/10/27 00:08:10;;;;;;;2.17;0.30;;;9.90;99.90;;;;;;5027975;28;20048;-73
2023/10/27 00:10:36;;;;;;;1.75;0.50;;;9.90;99.90;;;;;;5008914;28;20029;-74
2023/10/27 00:13:02;;;;;;;0.73;0.40;;;9.90;99.90;;;;;;5023834;28;20398;-73
2023/10/27 00:15:28;;;;;;;0.75;0.30;;;9.90;99.90;;;;;;5011940;28;20040;-73
2023/10/27 00:17:56;;;;;;;4.40;0.50;;;9.90;99.90;;;;;;5023382;28;20037;-73
2023/10/27 00:20:23;;;;;;;0.38;0.38;;;10.00;99.90;;;;;;5016266;28;20473;-76
2023/10/27 00:22:48;;;;;;;3.35;0.63;;;10.20;99.90;;;;;;5027638;28;20029;-75
2023/10/27 00:25:14;;;;;;;1.25;0.73;;;10.20;99.90;;;;;;5013433;28;20432;-74
2023/10/27 00:27:40;;;;;;;0.30;0.30;;;10.40;99.90;;;;;;5025727;28;20111;-74
2023/10/27 00:30:07;;;;;;;1.90;0.77;;;10.60;99.90;;;;;;5017665;28;20405;-75
2023/10/27 00:32:33;;;;;;;0.50;0.50;;;10.70;99.90;;;;;;5026467;28;20108;-75
2023/10/27 00:34:59;;;;;;;0.82;0.40;;;10.70;99.90;;;;;;5012606;28;20029;-75
2023/10/27 00:37:24;;;;;;;0.30;0.30;;;10.80;99.90;;;;;;5025173;28;20470;-76
2023/10/27 00:39:50;;;;;;;0.17;0.17;;;10.80;99.90;;;;;;5013602;28;20087;-76
2023/10/27 00:42:16;;;;;;;1.23;0.40;;;10.70;99.90;;;;;;5029234;28;20138;-75
2023/10/27 00:44:41;;;;;;;4.72;0.75;;;10.70;99.90;;;;;;5010034;28;20069;-75
2023/10/27 00:47:08;;;;;;;2.47;0.50;;;10.70;99.90;;;;;;5027499;28;20034;-76
2023/10/27 00:49:34;;;;;;;0.63;0.40;;;10.70;99.90;;;;;;5033313;28;20036;-75
2023/10/27 00:52:01;;;;;;;2.83;0.50;;;10.70;99.90;;;;;;5011533;28;20478;-76
2023/10/27 00:54:27;;;;;;;0.85;0.68;;;10.70;99.90;;;;;;5032054;28;20409;-75
2023/10/27 00:56:54;;;;;;;0.52;0.30;;;10.70;99.90;;;;;;5018803;28;20098;-75
2023/10/27 00:59:20;;;;;;;1.48;0.60;;;10.70;99.90;;;;;;5029456;28;20319;-76
2023/10/27 01:01:46;;;;;;;2.28;0.38;;;10.70;99.90;;;;;;5020758;28;20390;-75
2023/10/27 01:04:11;;;;;;;1.52;0.80;;;10.70;99.90;;;;;;5024893;28;20309;-74
2023/10/27 01:06:37;;;;;;;0.65;0.40;;;10.80;99.90;;;;;;5017476;28;20033;-75
2023/10/27 01:09:03;;;;;;;0.30;0.30;;;10.90;99.90;;;;;;5031216;28;20124;-75
2023/10/27 01:11:29;;;;;;;0.63;0.30;;;10.90;99.90;;;;;;5016406;28;20055;-75
2023/10/27 01:13:55;;;;;;;1.70;0.50;;;11.00;99.90;;;;;;5057987;28;20045;-75
2023/10/27 01:16:21;;;;;;;2.85;0.77;;;11.00;99.90;;;;;;5026373;28;20533;-75
2023/10/27 01:18:47;;;;;;;0.52;0.50;;;11.00;99.90;;;;;;5027697;28;20516;-75
2023/10/27 01:21:13;;;;;;;4.20;0.40;;;11.00;99.90;;;;;;5020946;28;20953;-75
2023/10/27 01:23:39;;;;;;;0.55;0.45;;;11.00;99.90;;;;;;5031811;28;20041;-75
2023/10/27 01:26:05;;;;;;;0.57;0.28;;;11.00;99.90;;;;;;5016410;28;20022;-76
2023/10/27 01:28:31;;;;;;;6.82;0.47;;;11.00;99.90;;;;;;5032973;28;20032;-75
2023/10/27 01:30:57;;;;;;;0.80;0.40;;;11.10;99.90;;;;;;5026389;28;20029;-75
2023/10/27 01:33:23;;;;;;;0.30;0.30;;;11.10;99.90;;;;;;5019241;28;20040;-75
2023/10/27 01:35:53;;;;;;;3.40;0.65;;;11.20;99.90;;;;;;5026461;28;20060;-75
2023/10/27 01:38:19;;;;;;;1.15;1.00;;;11.10;99.90;;;;;;5011745;28;20134;-75
2023/10/27 01:40:45;;;;;;;0.13;0.13;;;11.10;99.90;;;;;;5025423;28;20033;-75
2023/10/27 01:43:10;;;;;;;0.73;0.38;;;11.10;99.90;;;;;;5019265;28;20118;-75
2023/10/27 01:45:36;;;;;;;0.32;0.32;;;11.10;99.90;;;;;;5021284;28;20653;-74
2023/10/27 01:48:02;;;;;;;2.60;0.45;;;11.00;99.90;;;;;;5016942;28;20060;-74
2023/10/27 01:50:27;;;;;;;0.25;0.25;;;11.00;99.90;;;;;;5023968;28;20018;-74
2023/10/27 01:52:53;;;;;;;0.10;0.10;;;11.00;99.90;;;;;;5014503;28;20029;-75
2023/10/27 01:55:18;;;;;;;0.63;0.22;;;11.00;99.90;;;;;;5031844;28;20490;-75
2023/10/27 01:57:44;;;;;;;0.73;0.22;;;11.00;99.90;;;;;;5014867;28;20041;-75
2023/10/27 02:00:11;;;;;;;0.60;0.60;;;11.00;99.90;;;;;;5028277;28;20473;-75
2023/10/27 02:02:37;;;;;;;0.68;0.40;;;10.90;99.90;;;;;;5004758;28;20068;-75
2023/10/27 02:05:03;;;;;;;1.17;0.55;;;11.00;99.90;;;;;;5021586;28;20127;-76
2023/10/27 02:07:29;;;;;;;0.30;0.30;;;11.00;99.90;;;;;;5013925;28;20162;-74
2023/10/27 02:09:59;;;;;;;0.68;0.52;;;11.00;99.90;;;;;;5027785;28;20025;-75
2023/10/27 02:12:26;;;;;;;0.10;0.10;;;11.00;99.90;;;;;;5013027;28;20040;-75
2023/10/27 02:14:52;;;;;;;0.40;0.32;;;11.10;99.90;;;;;;5019748;28;20041;-74
2023/10/27 02:17:17;;;;;;;0.20;0.20;;;11.20;99.90;;;;;;5022587;28;20095;-75
2023/10/27 02:19:43;;;;;;;0.38;0.32;;;11.30;99.90;;;;;;5012862;28;20328;-74
2023/10/27 02:22:09;;;;;;;1.15;0.45;;;11.30;99.90;;;;;;5028257;28;20515;-75
2023/10/27 02:24:37;;;;;;;1.40;0.32;;;11.30;99.90;;;;;;5016676;28;20034;-75
2023/10/27 02:27:03;;;;;;;0.22;0.22;;;11.30;99.90;;;;;;5033351;28;20079;-74
2023/10/27 02:29:28;;;;;;;1.35;0.52;;;11.20;99.90;;;;;;5021238;28;20037;-74
2023/10/27 02:31:54;;;;;;;0.65;0.20;;;11.30;99.90;;;;;;5026652;28;20576;-74
2023/10/27 02:34:20;;;;;;;1.08;0.45;;;11.30;99.90;;;;;;5018136;28;20052;-75
2023/10/27 02:36:45;;;;;;;1.27;0.20;;;11.30;99.90;;;;;;5028516;28;20476;-74
2023/10/27 02:39:11;;;;;;;0.52;0.20;;;11.40;99.90;;;;;;5011627;28;20036;-75
2023/10/27 02:41:37;;;;;;;3.60;0.30;;;11.40;99.90;;;;;;5028721;28;20049;-75
2023/10/27 02:44:03;;;;;;;0.32;0.22;;;11.40;99.90;;;;;;5013685;28;20041;-75
2023/10/27 02:46:29;;;;;;;0.85;0.30;;;11.40;99.90;;;;;;5025066;28;20033;-75
2023/10/27 02:48:55;;;;;;;1.45;0.10;;;11.50;99.90;;;;;;5013960;28;20052;-75
2023/10/27 02:51:21;;;;;;;0.13;0.10;;;11.50;99.90;;;;;;5022021;28;20029;-75
2023/10/27 02:53:47;;;;;;;0.00;0.00;;;11.60;99.90;;;;;;5016775;28;20124;-74
2023/10/27 02:56:13;;;;;;;0.85;0.40;;;11.60;99.90;;;;;;5030616;28;20418;-75
2023/10/27 02:58:39;;;;;;;0.00;0.00;;;11.60;99.90;;;;;;5024021;28;20033;-75
2023/10/27 03:01:07;;;;;;;0.52;0.20;;;11.60;99.90;;;;;;4996341;28;20807;-75
2023/10/27 03:03:33;;;;;;;1.50;0.17;;;11.60;99.90;;;;;;5030256;28;20130;-75
2023/10/27 03:05:59;;;;;;;0.00;0.00;;;11.60;99.90;;;;;;5012479;28;20363;-75
2023/10/27 03:08:25;;;;;;;0.15;0.15;;;11.60;99.90;;;;;;5031257;28;20070;-74
2023/10/27 03:10:50;;;;;;;0.00;0.00;;;11.60;99.90;;;;;;5016335;28;20040;-75
2023/10/27 03:13:16;;;;;;;0.08;0.08;;;11.60;99.90;;;;;;5026163;28;20726;-75
2023/10/27 03:15:41;;;;;;;0.00;0.00;;;11.60;99.90;;;;;;5015256;28;20044;-74
2023/10/27 03:18:07;;;;;;;0.00;0.00;;;11.60;99.90;;;;;;5022073;28;20511;-75
2023/10/27 03:20:33;;;;;;;0.00;0.00;;;11.60;99.90;;;;;;5008301;28;20025;-75
2023/10/27 03:22:59;;;;;;;0.90;0.28;;;11.60;99.90;;;;;;5029107;28;20029;-75
2023/10/27 03:25:24;;;;;;;0.85;0.22;;;11.70;99.90;;;;;;5013887;28;20037;-75
2023/10/27 03:27:50;;;;;;;0.00;0.00;;;11.80;99.90;;;;;;5030995;28;20176;-75
2023/10/27 03:30:16;;;;;;;0.10;0.10;;;11.80;99.90;;;;;;5018461;28;20678;-75
2023/10/27 03:32:42;;;;;;;0.32;0.20;;;11.80;99.90;;;;;;5025777;28;20044;-75
2023/10/27 03:35:08;;;;;;;0.10;0.10;;;11.80;99.90;;;;;;5022052;28;20489;-74
2023/10/27 03:37:33;;;;;;;0.00;0.00;;;11.80;99.90;;;;;;5025009;28;20033;-74
2023/10/27 03:40:01;;;;;;;1.77;0.20;;;11.80;99.90;;;;;;5024855;28;20041;-75
2023/10/27 03:42:27;;;;;;;0.00;0.00;;;11.90;99.90;;;;;;5014955;28;20040;-75
2023/10/27 03:44:52;;;;;;;0.20;0.20;;;11.80;99.90;;;;;;5027935;28;20083;-75
2023/10/27 03:47:18;;;;;;;1.65;0.20;;;11.90;99.90;;;;;;5012370;28;20039;-75
2023/10/27 03:49:44;;;;;;;0.10;0.10;;;11.90;99.90;;;;;;5028159;28;20458;-74
2023/10/27 03:52:09;;;;;;;3.05;0.30;;;12.00;99.90;;;;;;5016828;28;20047;-74
2023/10/27 03:54:35;;;;;;;4.60;0.20;;;12.10;99.90;;;;;;5056000;28;20029;-74
2023/10/27 03:57:01;;;;;;;1.20;0.10;;;12.20;99.90;;;;;;5018465;28;20029;-74
2023/10/27 03:59:28;;;;;;;0.30;0.05;;;12.30;99.90;;;;;;5025806;28;20041;-75
2023/10/27 04:01:53;;;;;;;0.10;0.10;;;12.30;99.90;;;;;;5009490;28;20112;-74
2023/10/27 04:04:20;;;;;;;0.08;0.08;;;12.30;99.90;;;;;;5019301;28;20021;-75
2023/10/27 04:06:45;;;;;;;0.50;0.15;;;12.20;99.90;;;;;;5014642;28;20026;-74
2023/10/27 04:09:12;;;;;;;2.72;0.22;;;12.20;99.90;;;;;;5031683;28;20127;-74
2023/10/27 04:11:37;;;;;;;0.47;0.20;;;12.10;99.90;;;;;;5003673;28;20064;-74
2023/10/27 04:14:04;;;;;;;1.15;0.30;;;12.00;99.90;;;;;;5031729;28;20564;-74
2023/10/27 04:16:30;;;;;;;2.92;0.20;;;12.00;99.90;;;;;;5023861;28;20118;-75
2023/10/27 04:18:56;;;;;;;1.05;0.30;;;11.90;99.90;;;;;;5023041;28;20041;-75
2023/10/27 04:21:22;;;;;;;0.80;0.25;;;11.80;99.90;;;;;;5031606;28;20163;-75
2023/10/27 04:23:48;;;;;;;0.40;0.10;;;11.70;99.90;;;;;;5021411;28;20037;-75
2023/10/27 04:26:15;;;;;;;5.82;0.40;;;11.70;99.90;;;;;;5028942;28;20791;-75
2023/10/27 04:28:42;;;;;;;0.73;0.20;;;11.60;99.90;;;;;;5019627;28;20024;-76
2023/10/27 04:31:08;;;;;;;0.93;0.32;;;11.50;99.90;;;;;;5030495;28;20429;-75
2023/10/27 04:33:37;;;;;;;0.85;0.10;;;11.50;99.90;;;;;;5017448;28;20052;-75
2023/10/27 04:36:04;;;;;;;2.55;0.28;;;11.30;99.90;;;;;;5028271;28;20037;-75
2023/10/27 04:38:30;;;;;;;0.17;0.13;;;11.30;99.90;;;;;;5017852;28;20119;-76
2023/10/27 04:40:55;;;;;;;2.83;0.20;;;11.20;99.90;;;;;;5030500;28;20037;-75
2023/10/27 04:43:21;;;;;;;0.47;0.13;;;11.10;99.90;;;;;;5020206;28;20025;-75
2023/10/27 04:45:47;;;;;;;0.28;0.20;;;11.10;99.90;;;;;;5029665;28;20119;-74
2023/10/27 04:48:13;;;;;;;4.57;0.13;;;11.00;99.90;;;;;;5022856;28;20559;-75
2023/10/27 04:50:39;;;;;;;0.20;0.20;;;10.90;99.90;;;;;;5033286;28;20179;-75
2023/10/27 04:53:05;;;;;;;0.65;0.30;;;10.90;99.90;;;;;;5015260;28;20037;-75
2023/10/27 04:55:31;;;;;;;0.20;0.20;;;10.80;99.90;;;;;;5031043;28;20052;-75
2023/10/27 04:57:57;;;;;;;0.20;0.20;;;10.80;99.90;;;;;;5020341;28;20040;-75
2023/10/27 05:00:23;;;;;;;0.57;0.40;;;10.70;99.90;;;;;;5028331;28;20411;-75
2023/10/27 05:02:50;;;;;;;0.13;0.13;;;10.70;99.90;;;;;;5032233;28;20041;-74
2023/10/27 05:05:16;;;;;;;0.10;0.10;;;10.60;99.90;;;;;;5014969;28;20029;-74
2023/10/27 05:07:42;;;;;;;0.05;0.05;;;10.60;99.90;;;;;;5033792;28;20017;-75
2023/10/27 05:10:07;;;;;;;2.10;0.28;;;10.50;99.90;;;;;;5016601;28;20038;-75
2023/10/27 05:12:36;;;;;;;0.20;0.20;;;10.50;99.90;;;;;;5023914;28;20060;-75
2023/10/27 05:15:03;;;;;;;0.17;0.17;;;10.50;99.90;;;;;;5017768;28;20120;-75
2023/10/27 05:17:32;;;;;;;1.55;1.00;;;10.60;99.90;;;;;;5032974;28;20485;-75
2023/10/27 05:19:57;;;;;;;1.17;0.20;;;10.60;99.90;;;;;;5014944;28;20033;-75
2023/10/27 05:22:23;;;;;;;0.45;0.20;;;10.60;99.90;;;;;;5032396;28;20102;-75
2023/10/27 05:24:49;;;;;;;2.58;0.22;;;10.70;99.90;;;;;;5019694;28;20032;-75
2023/10/27 05:27:15;;;;;;;0.32;0.32;;;10.80;99.90;;;;;;5024461;28;21186;-75
2023/10/27 05:29:41;;;;;;;1.05;0.20;;;10.90;99.90;;;;;;5018415;28;20389;-74
2023/10/27 05:32:06;;;;;;;0.20;0.20;;;11.00;99.90;;;;;;5027754;28;20493;-75
2023/10/27 05:34:32;;;;;;;0.32;0.10;;;11.20;99.90;;;;;;5012559;28;21422;-74
2023/10/27 05:36:57;;;;;;;0.30;0.20;;;11.40;99.90;;;;;;5033169;28;20038;-75
2023/10/27 05:39:26;;;;;;;0.40;0.28;;;11.40;99.90;;;;;;5018116;28;20855;-74
2023/10/27 05:41:52;;;;;;;4.07;0.25;;;11.40;99.90;;;;;;5030140;28;20177;-74
2023/10/27 05:44:18;;;;;;;1.85;0.10;;;11.50;99.90;;;;;;5027065;28;20070;-74
2023/10/27 05:46:44;;;;;;;0.05;0.05;;;11.50;99.90;;;;;;5012679;28;20037;-74
2023/10/27 05:49:09;;;;;;;4.28;0.68;;;11.40;99.90;;;;;;5030308;28;20448;-74
2023/10/27 05:51:35;;;;;;;2.28;0.25;;;11.40;99.90;;;;;;5020248;28;20025;-73
2023/10/27 05:54:02;;;;;;;2.35;0.50;;;11.40;99.90;;;;;;5028108;28;20026;-73
2023/10/27 05:56:28;;;;;;;0.10;0.10;;;11.40;99.90;;;;;;5018906;28;20041;-73
2023/10/27 05:58:54;;;;;;;3.60;0.65;;;11.50;99.90;;;;;;5026423;28;20041;-74
2023/10/27 06:01:20;;;;;;;0.35;0.20;;;11.50;99.90;;;;;;5013450;28;20040;-73
2023/10/27 06:03:46;;;;;;;6.35;0.47;;;11.60;99.90;;;;;;5020202;28;20041;-74
2023/10/27 06:06:12;;;;;;;1.55;0.65;;;11.60;99.90;;;;;;5009315;28;20029;-74
2023/10/27 06:08:42;;;;;;;3.38;0.50;;;11.70;99.90;;;;;;5022746;28;20492;-74
2023/10/27 06:11:08;;;;;;;3.30;0.45;;;11.70;99.90;;;;;;5008996;28;20029;-74
2023/10/27 06:13:34;;;;;;;2.63;0.63;;;11.70;99.90;;;;;;5022293;28;20424;-74
2023/10/27 06:16:00;;;;;;;0.75;0.10;;;11.70;99.90;;;;;;5012047;28;21262;-74
2023/10/27 06:18:25;;;;;;;2.17;0.10;;;11.70;99.90;;;;;;5026985;28;20051;-74
2023/10/27 06:20:54;;;;;;;0.32;0.15;;;11.60;99.90;;;;;;5012131;28;20507;-74
2023/10/27 06:23:19;;;;;;;1.90;0.45;;;11.70;99.90;;;;;;5032024;28;20021;-75
2023/10/27 06:25:45;;;;;;;1.35;0.28;;;11.60;99.90;;;;;;5018297;28;20079;-75
2023/10/27 06:28:11;;;;;;;1.65;0.40;;;11.60;99.90;;;;;;5025727;28;20965;-75
2023/10/27 06:30:36;;;;;;;0.45;0.08;;;11.60;99.90;;;;;;5031675;28;20758;-75
2023/10/27 06:33:03;;;;;;;0.35;0.10;;;11.60;99.90;;;;;;5036290;28;20048;-75
2023/10/27 06:35:28;;;;;;;2.45;0.40;;;11.60;99.90;;;;;;5045380;28;20334;-75
2023/10/27 06:37:54;;;;;;;0.10;0.10;;;11.60;99.90;;;;;;5014806;28;20148;-74
2023/10/27 06:40:20;;;;;;;0.57;0.55;;;11.60;99.90;;;;;;5023371;28;20032;-75
2023/10/27 06:42:46;;;;;;;1.33;0.30;;;11.60;99.90;;;;;;5016409;28;20470;-75
2023/10/27 06:45:11;;;;;;;1.92;0.55;;;11.60;99.90;;;;;;5025164;28;20561;-74
2023/10/27 06:47:37;;;;;;;0.20;0.20;;;11.60;99.90;;;;;;5010142;28;20542;-75
2023/10/27 06:50:04;;;;;;;0.32;0.20;;;11.70;99.90;;;;;;5027060;28;20052;-74
2023/10/27 06:52:31;;;;;;;3.80;0.40;;;11.70;99.90;;;;;;5015447;28;20638;-75
2023/10/27 06:54:57;;;;;;;4.28;0.75;;;11.70;99.90;;;;;;5025009;28;20102;-74
2023/10/27 06:57:23;;;;;;;0.00;0.00;;;11.70;99.90;;;;;;5017351;28;20037;-74
2023/10/27 06:59:48;;;;;;;0.20;0.20;;;11.70;99.90;;;;;;5020351;28;20099;-75
2023/10/27 07:02:14;;;;;;;8.40;0.88;;;11.70;99.90;;;;;;5015867;28;20670;-75
2023/10/27 07:04:40;;;;;;;1.65;0.10;;;11.90;99.90;;;;;;5028731;28;20043;-74
2023/10/27 07:07:06;;;;;;;0.85;0.30;;;12.00;99.90;;;;;;5017017;28;20029;-75
2023/10/27 07:09:32;;;;;;;0.08;0.08;;;12.00;99.90;;;;;;5025222;28;20041;-74
2023/10/27 07:12:00;;;;;;;1.48;0.15;;;11.90;99.90;;;;;;5029074;28;20018;-74
2023/10/27 07:14:26;;;;;;;0.52;0.25;;;11.50;99.90;;;;;;5012699;28;20052;-74
2023/10/27 07:16:54;;;;;;;0.00;0.00;;;11.10;99.90;;;;;;5024530;28;20045;-74
2023/10/27 07:19:21;;;;;;;0.38;0.38;;;10.90;99.90;;;;;;5011544;28;20034;-74
2023/10/27 07:21:46;;;;;;;0.13;0.13;;;10.70;99.90;;;;;;5028547;28;20033;-74
2023/10/27 07:24:12;;;;;;;0.45;0.00;;;10.70;99.90;;;;;;5016441;28;20059;-74
2023/10/27 07:26:38;;;;;;;0.10;0.10;;;10.70;99.90;;;;;;5023364;28;20041;-74
2023/10/27 07:29:03;;;;;;;0.08;0.08;;;10.70;99.90;;;;;;5015611;28;20079;-74
2023/10/27 07:31:29;;;;;;;0.00;0.00;;;10.60;99.90;;;;;;5026638;28;20025;-74
2023/10/27 07:33:55;;;;;;;0.00;0.00;;;10.60;99.90;;;;;;5010150;28;20124;-75
2023/10/27 07:36:22;;;;;;;0.00;0.00;;;10.60;99.90;;;;;;5030747;28;20032;-74
2023/10/27 07:38:49;;;;;;;0.00;0.00;;;10.70;99.90;;;;;;5013279;28;20091;-75
2023/10/27 07:41:15;;;;;;;0.00;0.00;;;10.70;99.90;;;;;;5025675;28;20120;-75
2023/10/27 07:43:41;;;;;;;0.00;0.00;;;10.80;99.90;;;;;;5017976;28;20366;-75
2023/10/27 07:46:07;;;;;;;0.52;0.52;;;10.80;99.90;;;;;;5021965;28;21084;-74
2023/10/27 07:48:33;;;;;;;0.00;0.00;;;10.70;99.90;;;;;;5013097;28;20056;-75
2023/10/27 07:50:59;;;;;;;1.13;0.20;;;10.70;99.90;;;;;;5026217;28;20022;-75
2023/10/27 07:53:26;;;;;;;0.90;0.38;;;10.70;99.90;;;;;;5022740;28;20041;-75
2023/10/27 07:55:51;;;;;;;0.00;0.00;;;10.70;99.90;;;;;;5013962;28;20029;-75
2023/10/27 07:58:17;;;;;;;0.10;0.10;;;10.70;99.90;;;;;;5024789;28;20033;-75
2023/10/27 08:00:43;;;;;;;4.22;0.17;;;10.70;99.90;;;;;;4988398;28;20037;-75
2023/10/27 08:03:09;;;;;;;0.08;0.08;;;10.80;99.90;;;;;;5026678;28;20396;-75
2023/10/27 08:05:35;;;;;;;0.95;0.20;;;10.80;99.90;;;;;;5012743;28;20029;-75
2023/10/27 08:08:03;;;;;;;1.33;1.23;;;10.80;99.90;;;;;;5022052;28;20044;-75
2023/10/27 08:10:29;;;;;;;3.80;1.20;;;10.90;99.90;;;;;;5013732;28;20148;-74
2023/10/27 08:12:56;;;;;;;2.88;2.08;;;11.00;99.90;;;;;;5024327;28;20485;-75
2023/10/27 08:15:23;;;;;;;2.95;1.90;;;11.00;99.90;;;;;;5012086;28;20397;-75
2023/10/27 08:17:49;;;;;;;4.60;1.98;;;11.00;99.90;;;;;;5024454;28;20112;-75
2023/10/27 08:20:16;;;;;;;1.13;0.65;;;11.10;99.90;;;;;;5006159;28;20121;-75
2023/10/27 08:22:43;;;;;;;0.50;0.40;;;11.10;99.90;;;;;;5023955;28;20103;-75
2023/10/27 08:25:09;;;;;;;0.28;0.28;;;11.10;99.90;;;;;;5014339;28;20041;-75
2023/10/27 08:27:35;;;;;;;0.68;0.32;;;11.20;99.90;;;;;;5023011;28;20100;-75
2023/10/27 08:30:00;;;;;;;1.90;1.23;;;11.20;99.90;;;;;;5015492;28;20041;-75
2023/10/27 08:32:26;;;;;;;2.72;0.22;;;11.30;99.90;;;;;;5026989;28;20123;-75
2023/10/27 08:34:52;;;;;;;0.17;0.17;;;11.30;99.90;;;;;;5024149;28;20041;-74
2023/10/27 08:37:18;;;;;;;0.80;0.20;;;11.20;99.90;;;;;;5017496;28;20037;-75
2023/10/27 08:39:44;;;;;;;1.30;0.30;;;11.20;99.90;;;;;;5022093;28;20612;-74
2023/10/27 08:42:10;;;;;;;0.60;0.60;;;11.30;99.90;;;;;;5008305;28;20047;-75
2023/10/27 08:44:37;;;;;;;0.30;0.30;;;11.40;99.90;;;;;;5026716;28;20091;-75
2023/10/27 08:47:04;;;;;;;1.13;0.40;;;11.50;99.90;;;;;;5009817;28;20037;-74
2023/10/27 08:49:31;;;;;;;5.03;0.50;;;11.70;99.90;;;;;;5023327;28;20569;-75
2023/10/27 08:52:00;;;;;;;1.67;0.70;;;11.90;99.90;;;;;;5013153;28;20421;-75
2023/10/27 08:54:26;;;;;;;1.27;0.38;;;12.10;99.90;;;;;;5026341;28;20536;-75
2023/10/27 08:56:51;;;;;;;0.98;0.60;;;12.30;99.90;;;;;;5018788;28;20155;-74
2023/10/27 08:59:17;;;;;;;2.03;0.50;;;12.50;99.90;;;;;;5029675;28;20101;-74
2023/10/27 09:01:43;;;;;;;7.35;0.90;;;12.70;99.90;;;;;;5010331;28;20037;-76
2023/10/27 09:04:11;;;;;;;4.03;0.60;;;13.00;99.90;;;;;;5026769;28;20404;-75
2023/10/27 09:06:38;;;;;;;1.42;0.50;;;13.10;99.90;;;;;;5014816;28;20032;-73
2023/10/27 09:09:05;;;;;;;0.63;0.25;;;13.10;99.90;;;;;;5027904;28;20378;-73
2023/10/27 09:11:42;;;;;;;1.52;0.88;;;13.30;99.90;;;;;;5024960;28;20112;-73
2023/10/27 09:14:17;;;;;;;6.50;0.73;;;13.50;99.90;;;;;;5034450;28;20447;-74
2023/10/27 09:16:43;;;;;;;1.98;0.10;;;13.50;99.90;;;;;;5015623;28;20497;-74
2023/10/27 09:19:19;;;;;;;4.10;1.00;;;13.50;99.90;;;;;;5026286;28;20056;-74
2023/10/27 09:21:45;;;;;;;2.75;0.40;;;13.40;99.90;;;;;;5010704;28;20338;-74
2023/10/27 09:24:11;;;;;;;0.85;0.28;;;13.40;99.90;;;;;;5029535;28;20034;-74
2023/10/27 09:26:46;;;;;;;0.70;0.32;;;13.40;99.90;;;;;;5024457;28;20030;-74
2023/10/27 09:29:12;;;;;;;0.80;0.40;;;13.50;99.90;;;;;;5027333;28;20398;-74
2023/10/27 09:31:38;;;;;;;0.20;0.20;;;13.40;99.90;;;;;;5028087;28;20079;-74
2023/10/27 09:34:24;;;;;;;1.30;0.32;;;13.40;99.90;;;;;;5012919;28;20473;-74
2023/10/27 09:36:53;;;;;;;2.03;0.50;;;13.30;99.90;;;;;;5029625;28;20037;-74
2023/10/27 09:39:22;;;;;;;0.63;0.40;;;13.30;99.90;;;;;;5017338;28;20037;-74
2023/10/27 09:41:56;;;;;;;2.53;0.20;;;13.50;99.90;;;;;;5024151;28;20456;-74
2023/10/27 09:44:28;;;;;;;1.45;0.30;;;13.60;99.90;;;;;;5015843;28;20072;-74
2023/10/27 09:46:58;;;;;;;0.80;0.40;;;13.70;99.90;;;;;;5028582;28;20037;-74
2023/10/27 09:49:30;;;;;;;4.65;0.45;;;13.90;99.70;;;;;;5013834;28;20126;-74
2023/10/27 09:51:59;;;;;;;2.35;0.43;;;14.00;99.10;;;;;;5027044;28;20041;-74
2023/10/27 09:54:32;;;;;;;2.67;0.40;;;13.90;99.40;;;;;;5013230;28;20456;-74
2023/10/27 09:57:00;;;;;;;1.33;0.30;;;13.90;99.00;;;;;;5029068;28;20033;-74
2023/10/27 09:59:28;;;;;;;6.30;0.35;;;14.20;98.80;;;;;;5016204;28;20524;-74
2023/10/27 10:01:55;;;;;;;1.42;0.20;;;14.30;99.00;;;;;;5028241;28;20049;-73
2023/10/27 10:04:57;;;;;;;0.68;0.17;;;14.40;98.30;;;;;;5014069;28;20037;-74
2023/10/27 10:07:44;;;;;;;4.57;0.32;;;14.40;98.70;;;;;;5021944;28;20033;-73
2023/10/27 10:10:32;;;;;;;1.98;0.47;;;14.40;98.40;;;;;;5015095;28;20044;-73
2023/10/27 10:13:00;;;;;;;1.38;0.47;;;14.40;99.10;;;;;;5023810;28;20037;-74
2023/10/27 10:15:28;;;;;;;0.10;0.10;;;14.40;99.20;;;;;;5008493;28;20045;-74
2023/10/27 10:17:55;;;;;;;3.30;0.38;;;14.30;98.60;;;;;;5028960;28;20501;-74
2023/10/27 10:20:41;;;;;;;0.90;0.05;;;14.20;98.70;;;;;;5008345;28;20046;-74
2023/10/27 10:23:12;;;;;;;0.32;0.13;;;14.20;98.50;;;;;;5024414;28;20033;-74
2023/10/27 10:25:51;;;;;;;0.20;0.17;;;14.20;98.90;;;;;;5014681;28;20773;-74
2023/10/27 10:28:16;;;;;;;0.38;0.17;;;14.30;98.40;;;;;;5022150;28;20040;-73
2023/10/27 10:30:44;;;;;;;1.35;0.57;;;14.40;98.50;;;;;;5012354;28;20041;-74
2023/10/27 10:33:19;;;;;;;3.10;0.32;;;14.40;98.60;;;;;;5027624;28;20029;-73
2023/10/27 10:35:47;;;;;;;0.40;0.20;;;14.30;98.50;;;;;;5010317;28;20065;-73
2023/10/27 10:38:39;;;;;;;1.17;0.25;;;14.20;98.20;;;;;;5031751;28;20033;-73
2023/10/27 10:41:05;;;;;;;0.55;0.20;;;14.20;98.50;;;;;;5015515;28;20040;-74
2023/10/27 10:43:34;;;;;;;2.42;0.47;;;14.30;98.50;;;;;;5031877;28;20047;-74
2023/10/27 10:46:01;;;;;;;0.98;0.20;;;14.50;98.10;;;;;;5012227;28;20047;-74
2023/10/27 10:48:28;;;;;;;0.00;0.00;;;14.70;97.40;;;;;;5022213;28;20645;-74
2023/10/27 10:50:59;;;;;;;1.63;0.20;;;14.70;96.90;;;;;;5011934;28;20044;-74
2023/10/27 10:53:24;;;;;;;1.88;0.10;;;14.60;96.90;;;;;;5023662;28;20022;-74
2023/10/27 10:55:55;;;;;;;1.75;0.30;;;14.70;97.10;;;;;;5013293;28;20034;-73
2023/10/27 10:58:21;;;;;;;1.45;0.25;;;14.80;96.70;;;;;;5026319;28;20036;-73
2023/10/27 11:00:48;;;;;;;0.63;0.20;;;15.00;96.40;;;;;;5012550;28;20064;-74
2023/10/27 11:03:14;;;;;;;0.10;0.10;;;15.00;96.30;;;;;;5029581;28;20068;-74
2023/10/27 11:05:41;;;;;;;0.10;0.10;;;15.10;96.20;;;;;;5012516;28;20565;-73
2023/10/27 11:08:07;;;;;;;1.50;0.30;;;15.00;96.00;;;;;;5023304;28;20124;-73
2023/10/27 11:10:34;;;;;;;0.47;0.20;;;15.00;96.20;;;;;;5005813;28;20037;-74
2023/10/27 11:13:03;;;;;;;7.03;0.28;;;15.00;95.80;;;;;;5021078;28;20037;-74
2023/10/27 11:15:48;;;;;;;3.13;0.90;;;14.90;96.40;;;;;;5005841;28;20040;-74
2023/10/27 11:18:15;;;;;;;1.75;0.77;;;15.00;96.80;;;;;;5020302;28;20082;-74
2023/10/27 11:20:43;;;;;;;1.75;0.17;;;15.10;96.50;;;;;;5003235;28;20021;-73
2023/10/27 11:23:12;;;;;;;0.55;0.20;;;15.10;95.80;;;;;;5022335;28;20033;-73
2023/10/27 11:25:40;;;;;;;1.67;0.40;;;15.30;95.70;;;;;;5016598;28;21215;-73
2023/10/27 11:28:26;;;;;;;0.15;0.15;;;15.40;95.60;;;;;;5020773;28;20474;-73
2023/10/27 11:31:12;;;;;;;2.75;0.40;;;15.40;95.70;;;;;;5009835;28;20556;-73
2023/10/27 11:33:59;;;;;;;2.17;0.10;;;15.50;95.30;;;;;;5025476;28;20033;-73
2023/10/27 11:36:27;;;;;;;2.50;0.28;;;15.80;94.50;;;;;;5008081;28;20053;-74
2023/10/27 11:38:52;;;;;;;3.22;0.50;;;16.20;94.30;;;;;;5027157;28;20091;-74
2023/10/27 11:41:19;;;;;;;1.60;0.50;;;16.30;93.00;;;;;;5006058;28;20033;-74
2023/10/27 11:43:45;;;;;;;3.50;0.50;;;16.30;91.40;;;;;;5025286;28;20037;-73
2023/10/27 11:46:15;;;;;;;0.10;0.10;;;16.00;91.60;;;;;;5022306;28;20100;-74
2023/10/27 11:48:41;;;;;;;2.33;0.77;;;15.90;92.20;;;;;;5010924;28;20050;-74
2023/10/27 11:51:08;;;;;;;2.70;0.57;;;15.90;93.50;;;;;;5027426;28;20075;-74
2023/10/27 11:53:34;;;;;;;4.63;0.47;;;16.20;92.60;;;;;;5007948;28;20029;-74
2023/10/27 11:56:03;;;;;;;2.85;0.70;;;16.50;92.40;;;;;;5039309;28;20043;-74
2023/10/27 11:58:29;;;;;;;1.42;0.90;;;16.60;90.80;;;;;;5018329;28;20033;-73
2023/10/27 12:00:54;;;;;;;0.85;0.43;;;16.60;91.00;;;;;;5018577;28;20444;-73
2023/10/27 12:03:20;;;;;;;3.28;0.30;;;16.70;91.10;;;;;;5013573;28;20036;-73
2023/10/27 12:05:46;;;;;;;5.20;0.68;;;16.60;92.30;;;;;;5029005;28;20048;-73
2023/10/27 12:08:11;;;;;;;2.35;0.95;;;16.60;92.20;;;;;;5005564;28;20050;-74
2023/10/27 12:10:37;;;;;;;2.10;0.40;;;16.70;91.90;;;;;;5027203;28;20406;-74
2023/10/27 12:13:06;;;;;;;2.08;0.40;;;16.70;92.20;;;;;;5011587;28;20119;-74
2023/10/27 12:15:33;;;;;;;2.70;0.30;;;16.70;92.20;;;;;;5018295;28;20514;-74
2023/10/27 12:17:59;;;;;;;0.32;0.10;;;16.70;91.40;;;;;;5014468;28;20095;-75
2023/10/27 12:20:27;;;;;;;1.98;0.20;;;16.60;90.40;;;;;;5024956;28;20049;-74
2023/10/27 12:22:54;;;;;;;0.95;0.20;;;16.60;89.80;;;;;;5009683;28;20033;-73
2023/10/27 12:25:20;;;;;;;7.32;0.28;;;16.70;89.00;;;;;;5026076;28;20033;-74
2023/10/27 12:27:46;;;;;;;1.02;0.20;;;16.50;87.10;;;;;;5013416;28;20543;-75
2023/10/27 12:30:14;;;;;;;0.60;0.15;;;16.10;88.10;;;;;;5023579;28;20037;-73
2023/10/27 12:32:40;;;;;;;1.50;0.20;;;16.00;90.20;;;;;;5027215;28;20094;-74
2023/10/27 12:35:06;;;;;;;0.17;0.17;;;15.90;90.00;;;;;;5010611;28;21136;-73
2023/10/27 12:37:32;;;;;;;0.10;0.10;;;15.80;89.80;;;;;;5032081;28;20029;-73
2023/10/27 12:39:58;;;;;;;3.13;0.20;;;15.70;90.40;;;;;;5010834;28;20254;-74
2023/10/27 12:42:24;;;;;;;0.10;0.10;;;15.60;90.70;;;;;;5022482;28;20037;-73
2023/10/27 12:44:50;;;;;;;1.38;0.20;;;15.50;91.00;;;;;;5015465;28;20032;-73
2023/10/27 12:47:16;;;;;;;0.55;0.30;;;15.40;90.80;;;;;;5026921;28;20037;-73